Time;durP1;ratioP1;P1;durP2;ratioP2;P2;SDS_P1;SDS_P2;PMS_P1;PMS_P2;Temp;Humidity;BMP_temperature;BMP_pressure;BME280_temperature;BME280_humidity;BME280_pressure;Samples;Min_cycle;Max_cycle;Signal;HPM_P1;HPM_P2
2022/07/21 00:02:40;;;;;;;1.10;1.00;;;18.20;1.40;;;19.56;100.00;95643.73;646949;216;31514;-73
2022/07/21 00:05:22;;;;;;;2.25;1.60;;;18.20;1.40;;;19.50;100.00;95647.06;646444;216;31559;-73
2022/07/21 00:09:09;;;;;;;1.10;0.93;;;18.20;1.40;;;19.52;100.00;95654.02;646392;216;31558;-74
2022/07/21 00:11:53;;;;;;;1.40;1.20;;;18.10;1.40;;;19.51;100.00;95657.37;647101;216;32088;-73
2022/07/21 00:14:35;;;;;;;2.03;1.42;;;18.00;1.40;;;19.52;100.00;95662.86;646933;216;32067;-73
2022/07/21 00:17:16;;;;;;;2.90;1.65;;;18.20;1.40;;;19.57;100.00;95677.28;647384;212;31594;-73
2022/07/21 00:20:01;;;;;;;2.05;1.40;;;18.20;1.40;;;19.57;100.00;95693.20;646247;212;31507;-73
2022/07/21 00:22:43;;;;;;;1.80;1.50;;;18.20;1.40;;;19.51;100.00;95702.55;647102;216;31512;-73
2022/07/21 00:25:24;;;;;;;1.20;1.10;;;18.30;1.40;;;19.44;100.00;95708.44;645610;212;31523;-73
2022/07/21 00:28:06;;;;;;;2.10;1.42;;;18.20;1.40;;;19.42;100.00;95714.75;646569;216;31614;-73
2022/07/21 00:30:48;;;;;;;1.98;1.50;;;18.20;1.40;;;19.47;100.00;95709.73;647603;216;31528;-73
2022/07/21 00:35:51;;;;;;;1.62;1.50;;;18.20;1.40;;;19.49;100.00;95720.95;617975;225;32272;-73
2022/07/21 00:38:32;;;;;;;1.45;1.17;;;18.30;1.40;;;19.55;100.00;95717.14;646341;216;31584;-73
2022/07/21 00:41:14;;;;;;;2.00;1.62;;;18.30;1.40;;;19.63;100.00;95721.56;618995;222;31872;-73
2022/07/21 00:44:02;;;;;;;1.20;1.00;;;18.40;1.40;;;19.81;100.00;95727.46;646914;216;31501;-75
2022/07/21 00:46:50;;;;;;;2.60;1.90;;;18.40;1.40;;;19.67;100.00;95727.05;647435;216;31553;-73
2022/07/21 00:52:06;;;;;;;3.20;2.20;;;18.40;1.40;;;19.74;100.00;95717.52;618815;222;31961;-73
2022/07/21 00:54:47;;;;;;;1.62;1.52;;;18.40;1.40;;;19.78;100.00;95718.59;635277;216;31648;-74
2022/07/21 00:57:29;;;;;;;3.05;1.75;;;18.40;1.40;;;19.76;100.00;95725.64;646015;213;31553;-73
2022/07/21 01:00:17;;;;;;;1.58;1.48;;;18.40;1.40;;;19.77;100.00;95736.66;646841;212;31813;-73
2022/07/21 01:05:21;;;;;;;3.97;1.52;;;18.40;1.40;;;19.73;100.00;95731.88;646246;212;31590;-74
2022/07/21 01:08:03;;;;;;;1.77;1.37;;;18.50;1.40;;;19.76;100.00;95730.02;647156;212;31619;-73
2022/07/21 01:10:44;;;;;;;2.17;1.73;;;18.40;1.40;;;19.90;100.00;95727.16;646110;212;31533;-73
2022/07/21 01:13:26;;;;;;;4.28;1.80;;;18.50;1.40;;;19.96;100.00;95729.52;619314;226;31835;-73
2022/07/21 01:16:09;;;;;;;1.90;1.35;;;18.50;1.40;;;19.93;100.00;95720.64;646216;216;32070;-73
2022/07/21 01:18:50;;;;;;;2.20;1.40;;;18.50;1.40;;;19.90;100.00;95718.53;646862;216;31560;-73
2022/07/21 01:21:32;;;;;;;2.80;1.73;;;18.40;1.40;;;19.89;100.00;95715.70;646045;216;31558;-73
2022/07/21 01:24:14;;;;;;;2.37;1.30;;;18.40;1.40;;;19.99;100.00;95702.22;646817;216;31922;-73
2022/07/21 01:26:56;;;;;;;2.58;1.83;;;18.50;1.40;;;20.10;100.00;95700.34;618924;226;31891;-73
2022/07/21 01:29:37;;;;;;;4.90;1.67;;;18.50;1.40;;;20.04;100.00;95697.75;646553;212;31515;-73
2022/07/21 01:32:19;;;;;;;2.30;1.55;;;18.40;1.40;;;19.92;100.00;95687.77;647700;216;42778;-74
2022/07/21 01:35:51;;;;;;;2.22;1.40;;;18.40;1.40;;;19.94;100.00;95693.39;646553;216;31541;-73
2022/07/21 01:44:07;;;;;;;1.77;1.30;;;18.20;1.40;;;19.69;100.00;95710.09;647845;216;31519;-74
2022/07/21 01:46:49;;;;;;;1.85;1.30;;;18.20;1.40;;;19.62;100.00;95714.38;646465;212;32375;-72
2022/07/21 01:49:30;;;;;;;2.00;1.60;;;18.20;1.40;;;19.57;100.00;95713.05;646609;216;31909;-73
2022/07/21 01:52:12;;;;;;;2.50;2.00;;;18.20;1.40;;;19.51;100.00;95710.23;646290;216;31571;-74
2022/07/21 01:54:54;;;;;;;2.20;1.90;;;18.20;1.40;;;19.58;100.00;95701.91;636436;212;31723;-73
2022/07/21 01:57:35;;;;;;;2.47;1.17;;;18.20;1.40;;;19.61;100.00;95703.89;645982;212;31525;-74
2022/07/21 02:00:17;;;;;;;2.28;1.87;;;18.20;1.40;;;19.51;100.00;95702.92;647436;216;31557;-73
2022/07/21 02:03:06;;;;;;;6.15;2.22;;;18.20;1.40;;;19.55;100.00;95713.55;647456;216;31711;-75
2022/07/21 02:05:49;;;;;;;4.87;2.08;;;18.20;1.40;;;19.56;100.00;95712.89;646449;216;31582;-75
2022/07/21 02:08:31;;;;;;;1.83;1.48;;;18.20;1.40;;;19.56;100.00;95716.31;645914;216;31522;-73
2022/07/21 02:11:15;;;;;;;3.12;1.75;;;18.20;1.40;;;19.57;100.00;95709.67;646757;212;32189;-73
2022/07/21 02:13:57;;;;;;;1.10;0.90;;;18.30;1.40;;;19.69;100.00;95716.86;646568;212;31540;-73
2022/07/21 02:16:39;;;;;;;4.53;1.67;;;18.40;1.40;;;19.79;100.00;95723.70;647259;216;31804;-74
2022/07/21 02:19:23;;;;;;;1.57;1.20;;;18.40;1.40;;;19.80;100.00;95721.47;647266;212;31579;-73
2022/07/21 02:22:05;;;;;;;3.22;1.62;;;18.40;1.40;;;19.81;100.00;95729.44;647323;212;32474;-74
2022/07/21 02:24:47;;;;;;;1.98;1.77;;;18.40;1.40;;;19.85;100.00;95726.39;648316;216;31630;-73
2022/07/21 02:27:29;;;;;;;2.58;2.10;;;18.40;1.40;;;19.85;100.00;95736.17;647356;213;31624;-74
2022/07/21 02:30:16;;;;;;;1.98;1.77;;;18.50;1.40;;;19.92;100.00;95735.05;640568;217;32157;-74
2022/07/21 02:35:51;;;;;;;2.10;2.00;;;18.60;1.40;;;20.03;100.00;95722.45;647719;213;31567;-74
2022/07/21 02:38:34;;;;;;;3.00;1.70;;;18.60;1.40;;;20.17;100.00;95727.67;646770;216;42216;-74
2022/07/21 02:41:22;;;;;;;2.25;1.95;;;18.60;1.40;;;20.18;100.00;95724.70;647230;216;31913;-74
2022/07/21 02:44:10;;;;;;;2.17;1.12;;;18.70;1.40;;;20.23;100.00;95719.32;646007;216;31624;-74
2022/07/21 02:46:52;;;;;;;2.45;2.25;;;18.70;1.40;;;20.25;100.00;95723.36;643379;215;32173;-74
2022/07/21 02:49:39;;;;;;;1.62;1.37;;;18.70;1.40;;;20.17;100.00;95718.05;646951;216;31552;-74
2022/07/21 02:52:27;;;;;;;2.73;1.73;;;18.80;1.40;;;20.18;100.00;95708.17;645401;212;31660;-74
2022/07/21 02:55:09;;;;;;;3.80;2.00;;;18.80;1.40;;;20.18;100.00;95704.95;647293;212;31518;-74
2022/07/21 02:58:15;;;;;;;2.17;1.95;;;18.70;1.40;;;20.20;100.00;95701.61;646334;216;32082;-76
2022/07/21 03:00:59;;;;;;;2.80;1.70;;;18.90;1.40;;;20.26;100.00;95698.20;646242;212;34559;-75
2022/07/21 03:03:47;;;;;;;2.35;2.15;;;19.00;1.40;;;20.29;100.00;95701.74;646960;212;31671;-75
2022/07/21 03:06:34;;;;;;;3.05;2.55;;;19.00;1.40;;;20.34;100.00;95708.09;618910;226;31892;-74
2022/07/21 03:09:16;;;;;;;2.85;2.37;;;19.10;1.40;;;20.34;100.00;95706.48;647001;216;31563;-74
2022/07/21 03:11:58;;;;;;;6.37;2.70;;;19.10;1.40;;;20.38;100.00;95716.22;647131;212;31605;-74
2022/07/21 03:14:39;;;;;;;3.87;2.40;;;19.00;1.40;;;20.41;100.00;95715.01;646851;212;32212;-74
2022/07/21 03:17:27;;;;;;;2.53;1.85;;;19.00;1.40;;;20.39;100.00;95713.16;646535;212;32111;-76
2022/07/21 03:20:10;;;;;;;4.37;2.60;;;19.00;1.40;;;20.42;100.00;95706.37;646755;212;31612;-75
2022/07/21 03:22:54;;;;;;;5.10;3.08;;;19.00;1.40;;;20.38;100.00;95705.98;648163;216;31593;-73
2022/07/21 03:25:38;;;;;;;3.55;2.42;;;19.00;1.40;;;20.47;100.00;95704.73;645938;216;31580;-74
2022/07/21 03:28:20;;;;;;;4.90;2.53;;;19.00;1.40;;;20.51;100.00;95695.67;646203;216;42172;-74
2022/07/21 03:31:08;;;;;;;3.28;2.65;;;19.00;1.40;;;20.58;100.00;95691.77;645507;212;42234;-75
2022/07/21 03:35:52;;;;;;;3.10;2.80;;;19.00;1.40;;;20.49;100.00;95719.06;646913;212;42208;-74
2022/07/21 03:38:33;;;;;;;2.72;2.40;;;19.00;1.40;;;20.44;100.00;95728.92;647682;213;42202;-74
2022/07/21 03:41:15;;;;;;;4.20;3.05;;;19.10;1.40;;;20.39;100.00;95722.46;647658;212;31567;-74
2022/07/21 03:43:59;;;;;;;3.17;2.35;;;19.10;1.40;;;20.39;100.00;95738.78;646557;216;42288;-75
2022/07/21 03:46:42;;;;;;;6.28;3.47;;;19.00;1.40;;;20.40;100.00;95738.86;646997;216;31603;-75
2022/07/21 03:49:24;;;;;;;5.03;3.00;;;19.00;1.40;;;20.29;100.00;95744.41;619323;226;32026;-74
2022/07/21 03:52:06;;;;;;;3.65;3.03;;;19.10;1.40;;;20.31;100.00;95746.81;619984;226;32275;-74
2022/07/21 03:54:47;;;;;;;3.80;3.00;;;19.10;1.40;;;20.31;100.00;95751.10;635853;212;32123;-74
2022/07/21 03:57:29;;;;;;;3.35;2.67;;;19.10;1.40;;;20.32;100.00;95754.98;646639;216;31630;-74
2022/07/21 04:00:12;;;;;;;4.25;3.62;;;19.10;1.40;;;20.38;100.00;95758.33;647092;212;31568;-74
2022/07/21 04:02:53;;;;;;;4.20;3.20;;;19.10;1.40;;;20.47;100.00;95754.81;645881;212;32089;-74
2022/07/21 04:05:35;;;;;;;4.78;3.80;;;19.10;1.40;;;20.39;100.00;95756.09;621395;222;32291;-74
2022/07/21 04:08:17;;;;;;;3.53;3.05;;;19.10;1.40;;;20.36;100.00;95767.66;645666;212;31534;-74
2022/07/21 04:10:59;;;;;;;4.75;3.67;;;19.10;1.40;;;20.38;100.00;95759.23;646801;213;31576;-74
2022/07/21 04:13:40;;;;;;;5.50;4.68;;;19.20;1.40;;;20.42;100.00;95760.00;646203;212;42169;-74
2022/07/21 04:16:22;;;;;;;5.20;3.40;;;19.10;1.40;;;20.35;100.00;95761.92;631098;221;32093;-74
2022/07/21 04:19:04;;;;;;;4.50;3.22;;;19.10;1.40;;;20.42;100.00;95765.70;647385;216;31626;-75
2022/07/21 04:21:45;;;;;;;4.95;4.10;;;19.10;1.40;;;20.34;100.00;95765.44;619343;226;31917;-74
2022/07/21 04:24:27;;;;;;;3.50;3.20;;;19.10;1.40;;;20.37;100.00;95769.23;647807;216;31553;-75
2022/07/21 04:27:09;;;;;;;3.90;3.53;;;19.10;1.40;;;20.36;100.00;95768.70;648165;216;31535;-74
2022/07/21 04:29:54;;;;;;;4.40;3.90;;;19.10;1.40;;;20.38;100.00;95771.83;646084;212;32699;-75
2022/07/21 04:32:35;;;;;;;5.00;4.10;;;19.10;1.40;;;20.33;100.00;95772.55;646295;212;31674;-74
2022/07/21 04:35:51;;;;;;;6.78;4.40;;;19.10;1.40;;;20.33;100.00;95771.92;646798;216;31609;-74
2022/07/21 04:38:35;;;;;;;3.60;3.20;;;19.10;1.40;;;20.32;100.00;95772.59;646230;212;31762;-75
2022/07/21 04:41:22;;;;;;;4.30;3.90;;;19.10;1.40;;;20.26;100.00;95776.56;646975;216;32084;-74
2022/07/21 04:44:07;;;;;;;5.57;3.75;;;19.10;1.40;;;20.16;100.00;95783.52;647362;212;31591;-74
2022/07/21 04:46:49;;;;;;;5.07;3.63;;;19.00;1.40;;;20.17;100.00;95782.81;619540;226;31896;-74
2022/07/21 04:49:31;;;;;;;5.87;4.13;;;19.00;1.40;;;20.15;100.00;95787.44;615101;227;32386;-74
2022/07/21 04:52:13;;;;;;;4.90;3.00;;;19.00;1.40;;;20.23;100.00;95791.89;648372;212;32222;-75
2022/07/21 04:57:28;;;;;;;5.50;3.70;;;19.00;1.40;;;20.24;100.00;95796.85;646532;212;31698;-74
2022/07/21 05:00:14;;;;;;;4.57;3.75;;;19.10;1.40;;;20.28;100.00;95799.94;646534;216;31580;-74
2022/07/21 05:02:56;;;;;;;5.82;4.87;;;19.10;1.40;;;20.34;100.00;95799.89;646858;216;31651;-74
2022/07/21 05:05:43;;;;;;;5.15;4.25;;;19.10;1.40;;;20.43;100.00;95804.17;645657;216;33024;-75
2022/07/21 05:08:31;;;;;;;5.95;3.55;;;19.10;1.40;;;20.32;100.00;95811.50;647035;213;42066;-74
2022/07/21 05:11:13;;;;;;;6.18;3.70;;;19.20;1.40;;;20.34;100.00;95806.17;646780;216;31563;-74
2022/07/21 05:13:54;;;;;;;4.50;3.58;;;19.20;1.40;;;20.35;100.00;95807.66;619643;222;31924;-74
2022/07/21 05:16:36;;;;;;;6.68;4.28;;;19.20;1.40;;;20.46;100.00;95809.11;647783;212;32194;-74
2022/07/21 05:19:24;;;;;;;5.43;3.60;;;19.30;1.40;;;20.48;100.00;95813.82;645724;216;31654;-75
2022/07/21 05:22:12;;;;;;;6.03;5.05;;;19.40;1.40;;;20.53;100.00;95815.97;642670;215;31578;-74
2022/07/21 05:24:53;;;;;;;5.05;4.00;;;19.40;1.40;;;20.75;100.00;95819.60;646585;216;31534;-74
2022/07/21 05:27:38;;;;;;;6.68;3.97;;;19.50;1.40;;;20.76;100.00;95823.61;618291;222;42543;-75
2022/07/21 05:30:20;;;;;;;6.75;3.75;;;19.50;1.40;;;20.74;100.00;95823.24;646193;212;43515;-74
2022/07/21 05:33:01;;;;;;;5.18;4.65;;;19.50;1.40;;;20.92;100.00;95830.76;647302;212;31964;-74
2022/07/21 05:35:51;;;;;;;4.65;4.05;;;19.60;1.40;;;20.96;100.00;95828.27;646858;216;31565;-74
2022/07/21 05:38:33;;;;;;;4.25;3.80;;;19.70;1.40;;;21.01;100.00;95830.94;645617;212;42191;-75
2022/07/21 05:41:15;;;;;;;5.35;4.35;;;19.70;1.40;;;21.03;100.00;95831.22;646751;216;31550;-75
2022/07/21 05:43:58;;;;;;;7.70;5.30;;;19.80;1.40;;;21.14;100.00;95835.27;619649;225;31893;-75
2022/07/21 05:46:45;;;;;;;5.60;4.03;;;19.90;1.40;;;21.31;100.00;95831.02;646190;216;31552;-76
2022/07/21 05:49:33;;;;;;;9.30;5.28;;;20.00;1.40;;;21.24;100.00;95837.53;646539;216;31544;-74
2022/07/21 05:52:15;;;;;;;5.45;4.53;;;19.90;1.40;;;21.32;100.00;95845.73;646989;216;31563;-74
2022/07/21 05:54:57;;;;;;;5.72;4.32;;;20.00;1.40;;;21.28;100.00;95845.47;635494;216;31689;-74
2022/07/21 05:57:38;;;;;;;7.30;5.50;;;20.10;1.40;;;21.38;100.00;95849.31;647067;216;31869;-74
2022/07/21 06:02:54;;;;;;;4.75;4.30;;;20.20;1.40;;;21.43;100.00;95851.77;649863;216;31522;-74
2022/07/21 06:05:36;;;;;;;5.40;4.90;;;20.20;1.40;;;21.46;100.00;95855.23;646659;212;31562;-74
2022/07/21 06:08:18;;;;;;;7.20;4.65;;;20.30;1.40;;;21.73;100.00;95861.89;646604;212;31542;-74
2022/07/21 06:10:59;;;;;;;5.07;4.57;;;20.50;1.40;;;21.77;100.00;95865.20;647759;212;31563;-75
2022/07/21 06:13:41;;;;;;;7.07;4.60;;;20.40;1.40;;;21.92;100.00;95871.67;647884;216;31592;-75
2022/07/21 06:16:29;;;;;;;6.67;5.20;;;20.50;1.40;;;21.52;100.00;95870.94;646528;216;31733;-76
2022/07/21 06:19:16;;;;;;;8.10;4.43;;;20.20;1.40;;;21.51;100.00;95874.21;645024;216;31822;-73
2022/07/21 06:21:59;;;;;;;5.93;4.90;;;20.20;1.40;;;21.77;100.00;95871.66;646448;212;31519;-73
2022/07/21 06:24:40;;;;;;;7.07;5.00;;;20.40;1.40;;;21.91;100.00;95874.91;641158;217;31688;-73
2022/07/21 06:27:22;;;;;;;6.90;4.65;;;20.40;1.40;;;21.58;100.00;95874.05;618427;222;31956;-74
2022/07/21 06:32:38;;;;;;;5.70;4.73;;;20.40;1.40;;;21.86;100.00;95884.87;649363;216;31560;-73
2022/07/21 06:35:51;;;;;;;8.53;4.77;;;20.60;1.40;;;21.91;100.00;95885.17;647119;212;31644;-73
2022/07/21 06:38:33;;;;;;;7.93;5.93;;;20.70;1.40;;;22.03;100.00;95893.87;646350;212;31657;-73
2022/07/21 06:41:15;;;;;;;7.33;5.50;;;20.70;1.40;;;21.97;100.00;95891.59;619437;226;31883;-73
2022/07/21 06:43:58;;;;;;;6.80;5.60;;;20.70;1.40;;;22.23;100.00;95895.48;649767;216;31616;-72
2022/07/21 06:46:40;;;;;;;7.55;5.30;;;20.90;1.40;;;22.35;100.00;95896.12;647342;212;31607;-72
2022/07/21 06:49:22;;;;;;;9.35;6.35;;;21.00;1.40;;;22.64;100.00;95897.31;647498;216;31667;-73
2022/07/21 06:54:38;;;;;;;7.85;5.70;;;21.10;1.40;;;22.60;100.00;95906.80;609641;226;32286;-78
2022/07/21 06:57:19;;;;;;;8.32;5.10;;;21.20;1.40;;;22.46;100.00;95903.22;646446;212;31687;-76
2022/07/21 07:00:01;;;;;;;7.70;5.00;;;21.10;1.40;;;22.32;100.00;95903.23;618339;222;32129;-75
2022/07/21 07:02:49;;;;;;;5.05;4.25;;;20.90;1.40;;;22.59;100.00;95902.28;645901;216;31742;-76
2022/07/21 07:05:32;;;;;;;7.62;4.65;;;21.20;1.40;;;22.93;100.00;95906.97;647003;216;31733;-77
2022/07/21 07:10:54;;;;;;;6.30;4.87;;;21.90;1.40;;;23.56;100.00;95906.00;646263;216;31974;-76
2022/07/21 07:13:42;;;;;;;4.90;4.22;;;22.00;1.40;;;23.64;100.00;95906.71;647909;212;31551;-75
2022/07/21 07:16:30;;;;;;;7.45;5.20;;;21.80;1.40;;;23.28;100.00;95906.78;646330;216;31688;-76
2022/07/21 07:19:18;;;;;;;6.25;4.50;;;21.60;1.40;;;23.38;100.00;95911.60;645193;212;32145;-76
2022/07/21 07:22:00;;;;;;;6.50;4.80;;;21.70;1.40;;;23.32;100.00;95907.56;646343;216;32185;-76
2022/07/21 07:24:48;;;;;;;6.43;4.10;;;21.70;1.40;;;23.45;100.00;95907.12;646084;216;34540;-76
2022/07/21 07:27:35;;;;;;;5.55;4.47;;;21.90;1.40;;;23.66;100.00;95906.27;632096;222;31739;-75
2022/07/21 07:30:20;;;;;;;6.72;4.50;;;22.00;1.40;;;23.61;100.00;95906.76;645673;216;31645;-75
2022/07/21 07:33:02;;;;;;;5.53;4.37;;;22.00;1.40;;;23.44;100.00;95914.81;646555;216;35716;-76
2022/07/21 07:35:51;;;;;;;8.13;5.13;;;21.80;1.40;;;23.59;100.00;95914.46;646952;212;31693;-76
2022/07/21 07:38:33;;;;;;;7.53;4.30;;;21.90;1.40;;;23.44;100.00;95912.61;631451;222;31719;-75
2022/07/21 07:41:16;;;;;;;6.72;4.20;;;21.80;1.40;;;23.40;100.00;95915.69;646478;212;31585;-76
2022/07/21 07:44:04;;;;;;;4.70;4.10;;;21.70;1.40;;;23.27;100.00;95918.78;646566;213;41681;-76
2022/07/21 07:46:51;;;;;;;7.37;5.35;;;21.70;1.40;;;23.45;100.00;95924.72;647208;216;31572;-75
2022/07/21 07:49:33;;;;;;;5.45;4.30;;;21.70;1.40;;;23.23;100.00;95919.80;646645;212;32189;-76
2022/07/21 07:52:15;;;;;;;6.10;4.25;;;21.60;1.40;;;22.91;100.00;95918.48;647022;212;31806;-75
2022/07/21 07:54:57;;;;;;;4.72;4.25;;;21.30;1.40;;;22.48;100.00;95924.22;636657;216;32149;-75
2022/07/21 07:57:38;;;;;;;4.57;4.13;;;21.10;1.40;;;22.46;100.00;95926.56;620535;222;32078;-76
2022/07/21 08:00:20;;;;;;;6.15;4.87;;;20.90;1.40;;;22.48;100.00;95917.34;646238;216;31559;-75
2022/07/21 08:03:02;;;;;;;5.32;4.30;;;20.90;1.40;;;22.36;100.00;95922.15;647243;212;33550;-75
2022/07/21 08:05:47;;;;;;;6.90;3.65;;;20.80;1.40;;;22.34;100.00;95919.09;646213;212;31767;-75
2022/07/21 08:08:29;;;;;;;8.50;5.37;;;20.80;1.40;;;22.27;100.00;95919.11;646766;216;32290;-75
2022/07/21 08:11:13;;;;;;;6.15;5.07;;;20.80;1.40;;;22.24;100.00;95927.80;645852;216;31772;-75
2022/07/21 08:13:52;;;;;;;6.90;4.10;;;20.80;1.40;;;22.21;100.00;95932.61;647595;212;31944;-75
2022/07/21 08:16:35;;;;;;;7.40;4.50;;;20.80;1.40;;;22.21;100.00;95929.22;647085;212;31604;-75
2022/07/21 08:19:22;;;;;;;6.07;4.40;;;20.80;1.40;;;22.15;100.00;95932.90;646186;216;32344;-76
2022/07/21 08:22:10;;;;;;;5.73;4.43;;;20.70;1.40;;;22.31;100.00;95933.42;646248;216;31584;-74
2022/07/21 08:24:57;;;;;;;6.73;3.93;;;20.80;1.40;;;22.28;100.00;95938.55;648826;216;34553;-75
2022/07/21 08:27:41;;;;;;;5.45;3.70;;;20.70;1.40;;;22.14;100.00;95939.87;646566;216;32278;-75
2022/07/21 08:30:20;;;;;;;6.10;3.97;;;20.70;1.40;;;22.08;100.00;95942.10;620505;226;32381;-75
2022/07/21 08:33:02;;;;;;;4.97;3.28;;;20.60;1.40;;;21.99;100.00;95935.70;646853;212;31658;-75
2022/07/21 08:35:51;;;;;;;4.20;3.13;;;20.60;1.40;;;22.16;100.00;95935.17;647279;216;31587;-75
2022/07/21 08:38:33;;;;;;;4.22;3.75;;;20.70;1.40;;;22.37;100.00;95930.43;647653;212;31570;-75
2022/07/21 08:41:15;;;;;;;6.12;3.67;;;20.80;1.40;;;22.49;100.00;95933.46;646541;216;31612;-76
2022/07/21 08:43:56;;;;;;;3.45;3.15;;;21.00;1.40;;;22.78;100.00;95936.20;647457;215;31674;-76
2022/07/21 08:46:39;;;;;;;4.18;3.50;;;21.30;1.40;;;22.86;100.00;95934.55;646310;216;31642;-76
2022/07/21 08:49:21;;;;;;;4.60;3.30;;;21.30;1.40;;;22.90;100.00;95941.84;647487;212;31597;-76
2022/07/21 08:52:02;;;;;;;4.40;3.25;;;21.20;1.40;;;22.74;100.00;95942.34;646982;216;31704;-76
2022/07/21 08:54:44;;;;;;;4.82;3.35;;;21.10;1.40;;;22.56;100.00;95943.02;637270;216;32331;-76
2022/07/21 08:57:25;;;;;;;4.70;2.90;;;21.00;1.40;;;22.58;100.00;95943.21;647507;216;32332;-75
2022/07/21 09:00:08;;;;;;;4.90;2.42;;;20.90;1.40;;;22.51;100.00;95947.11;647657;212;31652;-76
2022/07/21 09:02:50;;;;;;;3.72;3.10;;;20.90;1.40;;;22.44;100.00;95953.36;646945;216;31796;-75
2022/07/21 09:05:32;;;;;;;4.45;3.00;;;20.80;1.40;;;22.44;100.00;95957.25;648546;212;31764;-76
2022/07/21 09:08:13;;;;;;;3.62;2.53;;;20.80;1.40;;;22.38;100.00;95957.49;647003;216;31769;-76
2022/07/21 09:10:55;;;;;;;3.55;2.90;;;20.70;1.40;;;22.16;100.00;95964.05;646495;216;31617;-76
2022/07/21 09:13:37;;;;;;;4.55;2.58;;;20.50;1.40;;;22.11;100.00;95963.88;646709;212;31609;-76
2022/07/21 09:16:35;;;;;;;3.07;2.30;;;20.50;1.40;;;22.07;100.00;95965.27;646390;216;32107;-76
2022/07/21 09:19:28;;;;;;;2.60;2.10;;;20.60;1.40;;;22.23;100.00;95960.33;647655;212;33506;-75
2022/07/21 09:22:14;;;;;;;3.10;2.50;;;20.70;1.40;;;22.15;100.00;95965.30;645811;212;31551;-75
2022/07/21 09:24:56;;;;;;;5.03;3.10;;;20.70;1.40;;;22.24;100.00;95961.03;647075;216;32081;-76
2022/07/21 09:27:37;;;;;;;3.08;2.78;;;20.80;1.40;;;22.30;100.00;95965.17;646709;212;31590;-76
2022/07/21 09:30:19;;;;;;;4.22;2.72;;;20.80;1.40;;;22.23;100.00;95968.83;646056;212;31614;-75
2022/07/21 09:33:01;;;;;;;3.92;3.55;;;20.70;1.40;;;22.07;100.00;95973.52;647296;212;31580;-76
2022/07/21 09:35:52;;;;;;;4.57;3.00;;;20.50;1.40;;;22.01;100.00;95972.27;647457;212;31615;-75
2022/07/21 09:38:34;;;;;;;4.97;3.25;;;20.50;1.40;;;21.88;100.00;95970.97;619173;226;31897;-75
2022/07/21 09:41:17;;;;;;;3.70;3.03;;;20.40;1.40;;;21.97;100.00;95970.92;646297;216;31684;-76
2022/07/21 09:44:01;;;;;;;4.87;2.92;;;20.40;1.40;;;22.10;100.00;95973.46;647899;212;31689;-75
2022/07/21 09:46:42;;;;;;;4.03;3.30;;;20.50;1.40;;;21.85;100.00;95978.14;645195;216;32044;-75
2022/07/21 09:49:24;;;;;;;4.57;3.13;;;20.40;1.40;;;21.44;100.00;95979.73;646940;212;31909;-75
2022/07/21 09:52:32;;;;;;;3.65;3.05;;;19.90;1.40;;;21.38;100.00;95978.77;647719;216;31582;-76
2022/07/21 09:55:14;;;;;;;4.28;3.15;;;20.00;1.40;;;21.42;100.00;95974.81;647667;216;31638;-75
2022/07/21 09:57:56;;;;;;;4.20;3.37;;;20.00;1.40;;;21.42;100.00;95976.67;648208;212;31628;-75
2022/07/21 10:03:13;;;;;;;7.47;4.00;;;20.20;1.40;;;21.87;100.00;95972.01;646293;216;31592;-75
2022/07/21 10:05:54;;;;;;;4.37;3.90;;;20.40;1.40;;;22.34;100.00;95967.09;620161;226;31912;-76
2022/07/21 10:08:36;;;;;;;5.87;4.33;;;20.70;1.40;;;22.52;100.00;95969.42;646423;216;31537;-75
2022/07/21 10:11:24;;;;;;;5.20;3.90;;;20.70;1.40;;;22.45;100.00;95971.05;647527;216;31589;-76
2022/07/21 10:14:12;;;;;;;6.87;3.90;;;20.70;1.40;;;22.58;100.00;95973.69;646541;212;31748;-76
2022/07/21 10:16:53;;;;;;;4.80;3.70;;;20.80;1.40;;;22.71;100.00;95969.73;646868;212;32084;-75
2022/07/21 10:19:54;;;;;;;4.33;3.57;;;21.00;1.40;;;22.87;100.00;95972.53;620042;226;31913;-75
2022/07/21 10:23:01;;;;;;;5.13;3.97;;;21.10;1.40;;;23.03;100.00;95974.72;646583;212;31642;-76
2022/07/21 10:25:43;;;;;;;5.18;3.65;;;21.00;1.40;;;23.28;100.00;95980.17;647489;212;31697;-76
2022/07/21 10:28:24;;;;;;;4.05;3.50;;;20.90;1.40;;;23.00;100.00;95978.89;647645;212;31564;-77
2022/07/21 10:31:17;;;;;;;4.85;3.83;;;20.50;1.40;;;22.61;100.00;95978.39;619817;222;32071;-76
2022/07/21 10:35:52;;;;;;;5.15;3.53;;;20.70;1.40;;;23.04;100.00;95973.39;647231;213;31572;-76
2022/07/21 10:38:34;;;;;;;5.78;4.60;;;21.00;1.40;;;23.26;100.00;95978.89;647643;213;42663;-75
2022/07/21 10:41:15;;;;;;;5.75;3.37;;;21.10;1.40;;;23.29;100.00;95979.11;647940;216;31644;-76
2022/07/21 10:43:57;;;;;;;4.97;3.65;;;21.30;1.40;;;23.53;100.00;95970.69;648070;216;31662;-76
2022/07/21 10:46:40;;;;;;;4.70;3.45;;;21.30;1.40;;;23.59;100.00;95978.22;648287;216;31549;-76
2022/07/21 10:49:20;;;;;;;4.80;3.60;;;21.50;1.40;;;23.70;100.00;95970.94;646592;216;31564;-75
2022/07/21 10:52:02;;;;;;;8.52;4.18;;;21.40;1.40;;;23.79;100.00;95969.58;647013;212;31541;-76
2022/07/21 10:54:44;;;;;;;4.45;3.33;;;21.50;1.40;;;23.66;100.00;95972.77;635436;213;32229;-75
2022/07/21 10:57:26;;;;;;;4.93;3.60;;;21.30;1.40;;;23.86;100.00;95976.14;647700;216;31582;-73
2022/07/21 11:00:18;;;;;;;6.07;3.33;;;21.30;1.40;;;23.38;100.00;95979.91;646601;216;32361;-73
2022/07/21 11:03:01;;;;;;;3.87;3.17;;;21.00;1.40;;;23.63;100.00;95980.16;646554;216;31708;-76
2022/07/21 11:08:23;;;;;;;6.20;3.80;;;21.30;1.40;;;23.71;100.00;95980.11;647729;216;37626;-78
2022/07/21 11:11:15;;;;;;;5.17;3.67;;;21.40;1.40;;;23.09;100.00;95979.44;647806;213;31609;-79
2022/07/21 11:14:03;;;;;;;5.30;3.33;;;20.90;1.40;;;23.39;100.00;95979.40;647755;212;31690;-79
2022/07/21 11:17:02;;;;;;;4.80;4.20;;;21.20;1.40;;;23.36;100.00;95979.09;647508;212;31571;-79
2022/07/21 11:19:53;;;;;;;4.25;3.20;;;21.20;1.40;;;23.52;100.00;95976.14;620126;226;32289;-78
2022/07/21 11:22:44;;;;;;;7.18;3.58;;;21.40;1.40;;;23.75;100.00;95970.30;645579;216;31612;-77
2022/07/21 11:25:28;;;;;;;6.65;3.42;;;21.60;1.40;;;23.78;100.00;95970.55;619098;222;31893;-78
2022/07/21 11:28:16;;;;;;;5.07;3.75;;;21.70;1.40;;;24.06;100.00;95967.33;647541;216;31587;-77
2022/07/21 11:31:16;;;;;;;5.18;4.03;;;21.80;1.40;;;24.44;100.00;95963.87;647238;212;31653;-79
2022/07/21 11:35:54;;;;;;;5.47;3.80;;;22.30;1.40;;;24.69;100.00;95968.07;647076;212;31693;-76
2022/07/21 11:38:35;;;;;;;7.05;4.30;;;22.40;1.40;;;24.62;100.00;95970.67;645982;216;31672;-76
2022/07/21 11:41:18;;;;;;;6.57;4.55;;;22.20;1.40;;;24.91;100.00;95968.42;645527;212;31503;-76
2022/07/21 11:44:06;;;;;;;5.40;4.20;;;22.40;1.40;;;24.66;100.00;95962.53;619968;226;31852;-79
2022/07/21 11:46:57;;;;;;;6.95;4.37;;;22.30;1.40;;;24.57;100.00;95963.27;648017;212;42156;-77
2022/07/21 11:49:39;;;;;;;4.22;3.83;;;22.20;1.40;;;24.76;100.00;95964.37;647368;216;31724;-76
2022/07/21 11:52:21;;;;;;;6.22;3.78;;;22.20;1.40;;;24.95;100.00;95962.22;645735;212;31993;-76
2022/07/21 11:55:02;;;;;;;6.07;4.10;;;22.40;1.40;;;24.96;100.00;95957.01;647899;216;31556;-76
2022/07/21 11:57:47;;;;;;;4.72;4.10;;;22.70;1.40;;;25.11;100.00;95952.08;648065;212;31583;-79
2022/07/21 12:00:35;;;;;;;5.32;4.10;;;22.50;1.40;;;25.42;100.00;95952.38;647537;216;32313;-76
2022/07/21 12:03:16;;;;;;;7.30;4.43;;;22.70;1.40;;;24.86;100.00;95953.61;645804;216;31638;-76
2022/07/21 12:05:59;;;;;;;5.68;4.62;;;22.40;1.40;;;24.90;100.00;95952.95;646553;216;31843;-77
2022/07/21 12:08:43;;;;;;;5.82;4.15;;;22.30;1.40;;;25.28;100.00;95948.70;644931;216;31753;-77
2022/07/21 12:11:24;;;;;;;5.00;4.50;;;22.40;1.40;;;24.91;100.00;95947.31;646338;212;31423;-77
2022/07/21 12:14:09;;;;;;;6.60;4.50;;;22.30;1.40;;;25.13;100.00;95949.24;646120;216;31947;-77